createdAt,value
2022-08-26T00:00:07.274Z,1.1
2022-08-26T00:01:06.966Z,1.2
2022-08-26T00:02:06.927Z,1.7
2022-08-26T00:03:06.774Z,0.9
2022-08-26T00:04:06.502Z,0.1
2022-08-26T00:05:06.270Z,1.8
2022-08-26T00:06:07.112Z,1.8
2022-08-26T00:07:06.797Z,0.3
2022-08-26T00:08:06.446Z,2.5
2022-08-26T00:09:07.182Z,1
2022-08-26T00:10:06.381Z,1.1
2022-08-26T00:11:07.048Z,0.5
2022-08-26T00:12:06.764Z,1.4
2022-08-26T00:13:07.024Z,3.3
2022-08-26T00:14:06.772Z,0.8
2022-08-26T00:15:06.474Z,2.6
2022-08-26T00:16:06.268Z,2
2022-08-26T00:17:06.905Z,1.7
2022-08-26T00:18:06.658Z,2.6
2022-08-26T00:19:07.185Z,0.6
2022-08-26T00:20:06.911Z,2.8
2022-08-26T00:21:06.537Z,1.1
2022-08-26T00:22:06.481Z,1.7
2022-08-26T00:23:06.264Z,1.3
2022-08-26T00:24:06.913Z,0.8
2022-08-26T00:25:06.634Z,2.2
2022-08-26T00:26:06.316Z,3.2
2022-08-26T00:27:06.947Z,0.5
2022-08-26T00:28:06.990Z,2.3
2022-08-26T00:29:06.731Z,0.8
2022-08-26T00:30:06.789Z,0.8
2022-08-26T00:31:06.507Z,1.5
2022-08-26T00:32:06.241Z,2.4
2022-08-26T00:33:06.879Z,0.8
2022-08-26T00:34:06.615Z,1.4
2022-08-26T00:35:06.297Z,0.9
2022-08-26T00:36:07.050Z,4.9
2022-08-26T00:37:06.666Z,2.7
2022-08-26T00:38:06.422Z,1.6
2022-08-26T00:39:07.155Z,1.3
2022-08-26T00:40:06.842Z,0.3
2022-08-26T00:41:06.976Z,1.9
2022-08-26T00:42:06.750Z,0.4
2022-08-26T00:43:06.589Z,1.6
2022-08-26T00:44:06.711Z,0.5
2022-08-26T00:45:06.390Z,1.2
2022-08-26T00:46:06.979Z,0.5
2022-08-26T00:47:06.871Z,1.4
2022-08-26T00:48:06.841Z,0.3
2022-08-26T00:49:06.732Z,2.3
2022-08-26T00:50:06.244Z,1.1
2022-08-26T00:51:07.227Z,2.1
2022-08-26T00:52:07.055Z,3.1
2022-08-26T00:53:06.818Z,3.1
2022-08-26T00:54:06.579Z,1.5
2022-08-26T00:55:06.660Z,2.7
2022-08-26T00:56:06.507Z,1.7
2022-08-26T00:57:06.921Z,1.5
2022-08-26T00:58:06.841Z,2.4
2022-08-26T00:59:06.877Z,0.1
2022-08-26T01:00:06.787Z,2.6
2022-08-26T01:01:06.905Z,1.2
2022-08-26T01:02:06.658Z,1.2
2022-08-26T01:03:06.322Z,1.1
2022-08-26T01:04:07.051Z,2.4
2022-08-26T01:05:06.334Z,1
2022-08-26T01:06:07.011Z,2.9
2022-08-26T01:07:06.751Z,1.1
2022-08-26T01:08:07.111Z,1.8
2022-08-26T01:09:06.798Z,1.9
2022-08-26T01:10:06.516Z,1.5
2022-08-26T01:11:07.180Z,1
2022-08-26T01:12:06.902Z,0.9
2022-08-26T01:13:06.335Z,2.7
2022-08-26T01:14:06.343Z,3.1
2022-08-26T01:15:06.968Z,0.2
2022-08-26T01:16:06.895Z,1.2
2022-08-26T01:17:06.603Z,0
2022-08-26T01:18:06.423Z,2.7
2022-08-26T01:19:07.217Z,2.1
2022-08-26T01:20:06.380Z,0.2
2022-08-26T01:21:06.343Z,1.4
2022-08-26T01:22:06.292Z,0.6
2022-08-26T01:23:07.005Z,2.2
2022-08-26T01:24:07.196Z,0.9
2022-08-26T01:25:06.993Z,0.9
2022-08-26T01:26:07.071Z,0.7
2022-08-26T01:27:06.338Z,2.3
2022-08-26T01:28:07.137Z,0.3
2022-08-26T01:29:07.105Z,0.9
2022-08-26T01:30:07.061Z,2.9
2022-08-26T01:31:06.822Z,1.6
2022-08-26T01:32:06.287Z,0.9
2022-08-26T01:33:07.085Z,1.2
2022-08-26T01:34:06.708Z,0.9
2022-08-26T01:35:06.623Z,0.3
2022-08-26T01:36:06.287Z,0.8
2022-08-26T01:37:07.001Z,0.6
2022-08-26T01:38:06.829Z,1.5
2022-08-26T01:39:06.566Z,1.1
2022-08-26T01:40:06.365Z,1.7
2022-08-26T01:41:07.169Z,0.8
2022-08-26T01:42:06.912Z,1.3
2022-08-26T01:43:06.539Z,1.5
2022-08-26T01:44:06.390Z,1.2
2022-08-26T01:45:06.358Z,0.2
2022-08-26T01:46:06.724Z,1.9
2022-08-26T01:47:06.569Z,0.3
2022-08-26T01:48:06.706Z,0.5
2022-08-26T01:49:06.382Z,2.1
2022-08-26T01:50:06.749Z,2.2
2022-08-26T01:51:06.982Z,1.2
2022-08-26T01:52:06.667Z,2.9
2022-08-26T01:53:06.765Z,1.9
2022-08-26T01:54:06.471Z,1.3
2022-08-26T01:55:06.297Z,4.2
2022-08-26T01:56:06.364Z,1.4
2022-08-26T01:57:06.686Z,0.6
2022-08-26T01:58:06.422Z,3
2022-08-26T01:59:06.387Z,1.1
2022-08-26T02:00:07.339Z,1.7
2022-08-26T02:01:06.522Z,1.2
2022-08-26T02:02:06.297Z,1.8
2022-08-26T02:03:06.935Z,1.4
2022-08-26T02:04:06.998Z,2.3
2022-08-26T02:05:07.055Z,2.8
2022-08-26T02:06:06.798Z,1.3
2022-08-26T02:07:06.817Z,3.4
2022-08-26T02:08:06.499Z,1.6
2022-08-26T02:09:06.547Z,0.5
2022-08-26T02:10:06.461Z,1.3
2022-08-26T02:11:07.173Z,0.8
2022-08-26T02:12:06.746Z,1.3
2022-08-26T02:13:06.453Z,1.7
2022-08-26T02:14:06.450Z,0.8
2022-08-26T02:15:06.943Z,1.1
2022-08-26T02:16:06.690Z,1.4
2022-08-26T02:17:06.981Z,0.8
2022-08-26T02:18:06.399Z,1.9
2022-08-26T02:19:06.358Z,0.7
2022-08-26T02:20:06.318Z,1.2
2022-08-26T02:21:07.080Z,1.7
2022-08-26T02:22:06.932Z,1.1
2022-08-26T02:23:06.610Z,0.1
2022-08-26T02:24:06.548Z,0.6
2022-08-26T02:25:06.301Z,1.6
2022-08-26T02:26:07.194Z,2.6
2022-08-26T02:27:06.879Z,0.6
2022-08-26T02:28:06.625Z,1.2
2022-08-26T02:29:07.189Z,0.8
2022-08-26T02:30:06.512Z,0.4
2022-08-26T02:31:06.271Z,0.6
2022-08-26T02:32:07.216Z,1.7
2022-08-26T02:33:07.132Z,1.3
2022-08-26T02:34:06.970Z,0.8
2022-08-26T02:35:06.600Z,0.5
2022-08-26T02:36:06.694Z,0.3
2022-08-26T02:37:06.443Z,1
2022-08-26T02:38:06.271Z,1.6
2022-08-26T02:39:06.942Z,1.8
2022-08-26T02:40:06.644Z,0.2
2022-08-26T02:41:06.948Z,1.2
2022-08-26T02:42:06.610Z,1.3
2022-08-26T02:43:06.342Z,0.8
2022-08-26T02:44:07.181Z,0.5
2022-08-26T02:45:06.924Z,2
2022-08-26T02:46:06.562Z,1.3
2022-08-26T02:47:06.353Z,0.8
2022-08-26T02:48:07.016Z,1.6
2022-08-26T02:49:06.816Z,1.5
2022-08-26T02:50:06.605Z,4.8
2022-08-26T02:51:06.321Z,0.5
2022-08-26T02:52:07.185Z,1.3
2022-08-26T02:53:06.750Z,2
2022-08-26T02:54:06.845Z,0.7
2022-08-26T02:55:06.550Z,1.6
2022-08-26T02:56:06.296Z,0.7
2022-08-26T02:57:07.009Z,0.4
2022-08-26T02:58:06.734Z,2.8
2022-08-26T02:59:06.471Z,1.9
2022-08-26T03:00:07.309Z,1
2022-08-26T03:01:06.783Z,1.2
2022-08-26T03:02:06.935Z,1.7
2022-08-26T03:03:06.692Z,1.4
2022-08-26T03:04:06.456Z,0.2
2022-08-26T03:05:07.158Z,2.5
2022-08-26T03:06:06.990Z,1.1
2022-08-26T03:07:06.748Z,0.8
2022-08-26T03:08:06.505Z,0.6
2022-08-26T03:09:07.181Z,2.2
2022-08-26T03:10:07.035Z,1.9
2022-08-26T03:11:06.650Z,3.6
2022-08-26T03:12:06.497Z,2.3
2022-08-26T03:13:07.187Z,0.1
2022-08-26T03:14:06.979Z,0.8
2022-08-26T03:15:06.701Z,0.5
2022-08-26T03:16:06.427Z,2.2
2022-08-26T03:17:07.155Z,0.7
2022-08-26T03:18:07.214Z,1.5
2022-08-26T03:19:06.921Z,1.9
2022-08-26T03:20:06.283Z,2.2
2022-08-26T03:21:06.919Z,0.7
2022-08-26T03:22:06.573Z,1.8
2022-08-26T03:23:06.312Z,1.6
2022-08-26T03:24:07.085Z,3.3
2022-08-26T03:25:06.776Z,0.9
2022-08-26T03:26:06.584Z,0.4
2022-08-26T03:27:06.245Z,0.3
2022-08-26T03:28:06.976Z,0.6
2022-08-26T03:29:06.815Z,2.7
2022-08-26T03:30:06.555Z,0.2
2022-08-26T03:31:06.345Z,0.7
2022-08-26T03:32:07.260Z,3.6
2022-08-26T03:33:06.891Z,1.5
2022-08-26T03:34:06.678Z,0.6
2022-08-26T03:35:06.404Z,0.4
2022-08-26T03:36:07.068Z,0.6
2022-08-26T03:37:06.469Z,0.7
2022-08-26T03:38:07.086Z,1.2
2022-08-26T03:39:06.857Z,1
2022-08-26T03:40:06.665Z,1.8
2022-08-26T03:41:06.420Z,2.1
2022-08-26T03:42:06.267Z,1.9
2022-08-26T03:43:07.020Z,3.2
2022-08-26T03:44:06.678Z,1.5
2022-08-26T03:45:06.451Z,0.2
2022-08-26T03:46:06.248Z,1.8
2022-08-26T03:47:06.922Z,1.6
2022-08-26T03:48:06.719Z,1.5
2022-08-26T03:49:06.440Z,0.7
2022-08-26T03:50:07.192Z,1.8
2022-08-26T03:51:06.982Z,0.7
2022-08-26T03:52:06.703Z,1.7
2022-08-26T03:53:06.507Z,1.5
2022-08-26T03:54:06.548Z,0.6
2022-08-26T03:55:07.118Z,2.5
2022-08-26T03:56:06.782Z,0.7
2022-08-26T03:57:06.592Z,1
2022-08-26T03:58:06.399Z,1.7
2022-08-26T03:59:07.038Z,1.9
2022-08-26T04:00:06.805Z,3
2022-08-26T04:01:07.015Z,1.5
2022-08-26T04:02:06.765Z,4.2
2022-08-26T04:03:06.668Z,1.2
2022-08-26T04:04:06.864Z,2.7
2022-08-26T04:05:06.821Z,0.6
2022-08-26T04:06:06.583Z,2.6
2022-08-26T04:07:06.302Z,2
2022-08-26T04:08:06.961Z,0.5
2022-08-26T04:09:06.730Z,1.7
2022-08-26T04:10:06.612Z,1.9
2022-08-26T04:11:07.141Z,0.8
2022-08-26T04:12:07.165Z,1.1
2022-08-26T04:13:06.303Z,0.8
2022-08-26T04:14:07.104Z,1.5
2022-08-26T04:15:06.678Z,1.7
2022-08-26T04:16:06.370Z,1.3
2022-08-26T04:17:07.072Z,2.4
2022-08-26T04:18:06.826Z,3.8
2022-08-26T04:19:06.584Z,2.7
2022-08-26T04:20:06.452Z,1.6
2022-08-26T04:21:07.078Z,0.8
2022-08-26T04:22:06.823Z,3.2
2022-08-26T04:23:06.569Z,2.4
2022-08-26T04:24:06.574Z,1.2
2022-08-26T04:25:06.290Z,4.4
2022-08-26T04:26:07.128Z,3.3
2022-08-26T04:27:06.293Z,1.5
2022-08-26T04:28:06.940Z,1
2022-08-26T04:29:06.700Z,0.5
2022-08-26T04:30:07.044Z,0.2
2022-08-26T04:31:06.945Z,0.9
2022-08-26T04:32:06.679Z,0.7
2022-08-26T04:33:06.359Z,2.5
2022-08-26T04:34:07.081Z,6.4
2022-08-26T04:35:06.847Z,0.9
2022-08-26T04:36:06.932Z,2
2022-08-26T04:37:06.628Z,2.4
2022-08-26T04:38:06.413Z,1.4
2022-08-26T04:39:07.087Z,2.1
2022-08-26T04:40:06.827Z,2
2022-08-26T04:41:06.631Z,2.6
2022-08-26T04:42:06.337Z,3.2
2022-08-26T04:43:07.111Z,2.4
2022-08-26T04:44:06.874Z,2.2
2022-08-26T04:45:06.618Z,2.7
2022-08-26T04:46:06.564Z,3
2022-08-26T04:47:06.278Z,1.2
2022-08-26T04:48:07.041Z,0.6
2022-08-26T04:49:06.775Z,3.8
2022-08-26T04:50:07.017Z,0.4
2022-08-26T04:51:06.682Z,0.8
2022-08-26T04:52:06.451Z,1.8
2022-08-26T04:53:07.144Z,0.5
2022-08-26T04:54:06.902Z,1.5
2022-08-26T04:55:06.611Z,2.6
2022-08-26T04:56:06.214Z,2.6
2022-08-26T04:57:06.403Z,2
2022-08-26T04:58:07.123Z,1.9
2022-08-26T04:59:06.884Z,2.4
2022-08-26T05:00:06.651Z,2.3
2022-08-26T05:01:06.346Z,0.9
2022-08-26T05:02:06.761Z,2.3
2022-08-26T05:03:06.414Z,2.3
2022-08-26T05:04:07.142Z,1.4
2022-08-26T05:05:06.814Z,1.3
2022-08-26T05:06:07.204Z,1.1
2022-08-26T05:07:06.563Z,1.3
2022-08-26T05:08:06.198Z,2.2
2022-08-26T05:09:06.916Z,0.8
2022-08-26T05:10:06.671Z,3.2
2022-08-26T05:11:06.498Z,2
2022-08-26T05:12:06.180Z,2.8
2022-08-26T05:13:06.910Z,1.6
2022-08-26T05:14:06.601Z,2.2
2022-08-26T05:15:06.389Z,1.5
2022-08-26T05:16:07.137Z,2.3
2022-08-26T05:17:06.973Z,2.1
2022-08-26T05:18:06.654Z,2.5
2022-08-26T05:19:06.386Z,3.9
2022-08-26T05:20:07.120Z,1.6
2022-08-26T05:21:07.117Z,2.4
2022-08-26T05:22:06.819Z,1.8
2022-08-26T05:23:06.622Z,2
2022-08-26T05:24:06.331Z,2.8
2022-08-26T05:25:07.111Z,2.9
2022-08-26T05:26:07.037Z,1.6
2022-08-26T05:27:06.650Z,5.7
2022-08-26T05:28:06.383Z,1.5
2022-08-26T05:29:07.041Z,1.7
2022-08-26T05:30:06.843Z,3.2
2022-08-26T05:31:06.635Z,2.3
2022-08-26T05:32:06.376Z,2.8
2022-08-26T05:33:06.251Z,3.3
2022-08-26T05:34:06.923Z,1.1
2022-08-26T05:35:06.655Z,1.8
2022-08-26T05:36:06.387Z,2.4
2022-08-26T05:37:06.302Z,2.4
2022-08-26T05:38:06.617Z,0.3
2022-08-26T05:39:06.323Z,3.2
2022-08-26T05:40:06.967Z,2.7
2022-08-26T05:41:06.835Z,1.3
2022-08-26T05:42:06.650Z,2.6
2022-08-26T05:43:06.427Z,1.7
2022-08-26T05:44:07.142Z,0.9
2022-08-26T05:45:07.167Z,2.2
2022-08-26T05:46:06.899Z,0.7
2022-08-26T05:47:06.746Z,2.4
2022-08-26T05:48:06.592Z,5.9
2022-08-26T05:49:06.210Z,2.1
2022-08-26T05:50:07.149Z,2.8
2022-08-26T05:51:06.656Z,3.1
2022-08-26T05:52:06.362Z,1.6
2022-08-26T05:53:07.225Z,1.5
2022-08-26T05:54:06.866Z,1.8
2022-08-26T05:55:06.523Z,2.2
2022-08-26T05:56:06.359Z,1.4
2022-08-26T05:57:06.984Z,3.4
2022-08-26T05:58:06.239Z,1.6
2022-08-26T05:59:07.000Z,2.9
2022-08-26T06:00:07.157Z,5
2022-08-26T06:01:06.404Z,1.5
2022-08-26T06:02:06.343Z,1
2022-08-26T06:03:07.093Z,2.1
2022-08-26T06:04:06.748Z,1.8
2022-08-26T06:05:06.463Z,1.6
2022-08-26T06:06:06.419Z,1.4
2022-08-26T06:07:06.402Z,1.2
2022-08-26T06:08:06.635Z,2.2
2022-08-26T06:09:06.747Z,3.4
2022-08-26T06:10:06.626Z,2.2
2022-08-26T06:11:06.494Z,2.6
2022-08-26T06:12:06.310Z,2.5
2022-08-26T06:13:07.015Z,3.8
2022-08-26T06:14:06.273Z,1.5
2022-08-26T06:15:06.964Z,2.1
2022-08-26T06:16:06.766Z,1.5
2022-08-26T06:17:07.002Z,1.4
2022-08-26T06:18:06.705Z,3.1
2022-08-26T06:19:06.626Z,4
2022-08-26T06:20:06.957Z,1.4
2022-08-26T06:21:06.669Z,0.6
2022-08-26T06:22:06.942Z,2.7
2022-08-26T06:23:06.675Z,7.1
2022-08-26T06:24:06.410Z,0.5
2022-08-26T06:25:07.189Z,2.2
2022-08-26T06:26:06.821Z,4.1
2022-08-26T06:27:06.586Z,1.9
2022-08-26T06:28:06.344Z,1.4
2022-08-26T06:29:07.026Z,1.8
2022-08-26T06:30:06.749Z,4.1
2022-08-26T06:31:06.281Z,1.7
2022-08-26T06:32:06.990Z,1.7
2022-08-26T06:33:06.654Z,2.5
2022-08-26T06:34:06.418Z,5.4
2022-08-26T06:35:07.161Z,3.8
2022-08-26T06:36:06.718Z,5.6
2022-08-26T06:37:06.452Z,2.1
2022-08-26T06:38:07.074Z,4.2
2022-08-26T06:39:06.861Z,3.2
2022-08-26T06:40:06.689Z,2.9
2022-08-26T06:41:06.755Z,4
2022-08-26T06:42:06.370Z,3.4
2022-08-26T06:43:06.251Z,2.6
2022-08-26T06:44:06.960Z,3.9
2022-08-26T06:45:06.605Z,4.1
2022-08-26T06:46:06.318Z,2.4
2022-08-26T06:47:06.998Z,5.1
2022-08-26T06:48:06.704Z,2.1
2022-08-26T06:49:06.396Z,2.7
2022-08-26T06:50:07.209Z,1.9
2022-08-26T06:51:06.606Z,1.1
2022-08-26T06:52:07.031Z,2.7
2022-08-26T06:53:07.005Z,4.6
2022-08-26T06:54:06.736Z,1.7
2022-08-26T06:55:06.514Z,6
2022-08-26T06:56:06.786Z,1.5
2022-08-26T06:57:06.532Z,1.9
2022-08-26T06:58:06.885Z,4
2022-08-26T06:59:06.589Z,3.2
2022-08-26T07:00:06.373Z,5.3
2022-08-26T07:01:06.588Z,2.6
2022-08-26T07:02:06.689Z,3.2
2022-08-26T07:03:06.488Z,1.9
2022-08-26T07:04:07.067Z,2.5
2022-08-26T07:05:06.753Z,3
2022-08-26T07:06:06.541Z,3
2022-08-26T07:07:06.486Z,2.4
2022-08-26T07:08:07.161Z,2.1
2022-08-26T07:09:06.997Z,2.9
2022-08-26T07:10:06.747Z,2.7
2022-08-26T07:11:06.649Z,4.1
2022-08-26T07:12:06.294Z,1.3
2022-08-26T07:13:07.087Z,2.1
2022-08-26T07:14:06.645Z,2.7
2022-08-26T07:15:06.339Z,2.7
2022-08-26T07:16:06.626Z,3.7
2022-08-26T07:17:06.271Z,2.4
2022-08-26T07:18:06.346Z,1
2022-08-26T07:19:07.055Z,2.9
2022-08-26T07:20:06.919Z,2.4
2022-08-26T07:21:06.198Z,3.2
2022-08-26T07:22:06.957Z,2.5
2022-08-26T07:23:06.569Z,2.9
2022-08-26T07:24:06.268Z,1.2
2022-08-26T07:25:06.527Z,3.4
2022-08-26T07:26:06.187Z,1.9
2022-08-26T07:27:06.951Z,1.5
2022-08-26T07:28:06.750Z,4.3
2022-08-26T07:29:06.537Z,3
2022-08-26T07:30:07.252Z,5.7
2022-08-26T07:31:06.525Z,3
2022-08-26T07:32:06.595Z,3.8
2022-08-26T07:33:06.239Z,7.6
2022-08-26T07:34:07.005Z,2.8
2022-08-26T07:35:06.783Z,3.1
2022-08-26T07:36:06.510Z,3.8
2022-08-26T07:37:06.363Z,3.6
2022-08-26T07:38:06.616Z,3
2022-08-26T07:39:06.470Z,3.1
2022-08-26T07:40:06.252Z,4.2
2022-08-26T07:41:07.070Z,3.2
2022-08-26T07:42:06.836Z,3.4
2022-08-26T07:43:07.048Z,2.2
2022-08-26T07:44:06.935Z,5
2022-08-26T07:45:06.622Z,3.6
2022-08-26T07:46:06.327Z,2.5
2022-08-26T07:47:07.116Z,2.5
2022-08-26T07:48:06.831Z,1.8
2022-08-26T07:49:06.549Z,3
2022-08-26T07:50:07.174Z,5
2022-08-26T07:51:06.690Z,2.7
2022-08-26T07:52:06.420Z,2.7
2022-08-26T07:53:06.255Z,5.3
2022-08-26T07:54:06.917Z,3.1
2022-08-26T07:55:06.672Z,2
2022-08-26T07:56:06.293Z,2.8
2022-08-26T07:57:07.010Z,2
2022-08-26T07:58:07.146Z,3
2022-08-26T07:59:06.984Z,2.2
2022-08-26T08:00:06.860Z,1.6
2022-08-26T08:01:07.036Z,2.4
2022-08-26T08:02:06.795Z,2.2
2022-08-26T08:03:06.902Z,4.7
2022-08-26T08:04:06.651Z,8.4
2022-08-26T08:05:06.419Z,4.4
2022-08-26T08:06:07.193Z,4.7
2022-08-26T08:07:06.918Z,2
2022-08-26T08:08:06.500Z,2.6
2022-08-26T08:09:06.305Z,2.1
2022-08-26T08:10:07.093Z,2.6
2022-08-26T08:11:06.771Z,2
2022-08-26T08:12:06.430Z,2.8
2022-08-26T08:13:06.420Z,4.4
2022-08-26T08:14:06.221Z,12.6
2022-08-26T08:15:06.907Z,5.8
2022-08-26T08:16:06.818Z,5.9
2022-08-26T08:17:07.050Z,7.9
2022-08-26T08:18:06.796Z,5
2022-08-26T08:19:06.560Z,5.8
2022-08-26T08:20:06.434Z,6.5
2022-08-26T08:21:07.162Z,6.2
2022-08-26T08:22:06.917Z,7.9
2022-08-26T08:23:06.707Z,3.1
2022-08-26T08:24:06.275Z,5.8
2022-08-26T08:25:07.046Z,6.7
2022-08-26T08:26:06.841Z,5.4
2022-08-26T08:27:06.631Z,4.7
2022-08-26T08:28:06.305Z,14.4
2022-08-26T08:29:07.027Z,13.6
2022-08-26T08:30:06.687Z,11.8
2022-08-26T08:31:06.764Z,14.2
2022-08-26T08:32:06.457Z,16.4
2022-08-26T08:33:06.517Z,14
2022-08-26T08:34:07.141Z,13.7
2022-08-26T08:35:06.896Z,13.8
2022-08-26T08:36:06.627Z,14.8
2022-08-26T08:37:06.683Z,12.2
2022-08-26T08:38:06.501Z,15.4
2022-08-26T08:39:07.155Z,15.4
2022-08-26T08:40:06.925Z,17
2022-08-26T08:41:06.703Z,16
2022-08-26T08:42:06.492Z,15.2
2022-08-26T08:43:06.657Z,15.4
2022-08-26T08:44:06.221Z,15.4
2022-08-26T08:45:06.567Z,14.4
2022-08-26T08:46:06.999Z,15
2022-08-26T08:47:06.739Z,15.5
2022-08-26T08:48:06.551Z,17.1
2022-08-26T08:49:06.815Z,15.5
2022-08-26T08:50:06.541Z,17
2022-08-26T08:51:06.811Z,12.9
2022-08-26T08:52:06.508Z,17.1
2022-08-26T08:53:06.640Z,17.6
2022-08-26T08:54:06.964Z,15
2022-08-26T08:55:06.698Z,16.1
2022-08-26T08:56:06.389Z,18.1
2022-08-26T08:57:06.579Z,16.4
2022-08-26T08:58:06.378Z,15.7
2022-08-26T08:59:06.581Z,15.1
2022-08-26T09:00:06.943Z,17
2022-08-26T09:01:06.497Z,16.5
2022-08-26T09:02:06.837Z,17.4
2022-08-26T09:03:07.085Z,14.1
2022-08-26T09:04:06.319Z,16.1
2022-08-26T09:05:06.689Z,17.4
2022-08-26T09:06:07.030Z,14.8
2022-08-26T09:07:06.749Z,17
2022-08-26T09:08:07.080Z,15.8
2022-08-26T09:09:06.323Z,14.9
2022-08-26T09:10:06.267Z,14.7
2022-08-26T09:11:07.094Z,15.7
2022-08-26T09:12:06.750Z,15.3
2022-08-26T09:13:06.595Z,14.2
2022-08-26T09:14:06.412Z,16.2
2022-08-26T09:15:07.113Z,13.2
2022-08-26T09:16:06.992Z,10.7
2022-08-26T09:17:06.265Z,12.7
2022-08-26T09:18:06.605Z,14.5
2022-08-26T09:19:06.390Z,14.1
2022-08-26T09:20:07.197Z,12.6
2022-08-26T09:21:06.628Z,14.6
2022-08-26T09:22:06.377Z,13.9
2022-08-26T09:23:06.254Z,13.9
2022-08-26T09:24:07.125Z,16.6
2022-08-26T09:25:06.530Z,13.7
2022-08-26T09:26:06.371Z,13.8
2022-08-26T09:27:06.687Z,13.9
2022-08-26T09:28:06.464Z,14.4
2022-08-26T09:29:06.349Z,15.3
2022-08-26T09:30:07.162Z,13.9
2022-08-26T09:31:06.941Z,14.3
2022-08-26T09:32:06.669Z,14.5
2022-08-26T09:33:06.438Z,12.6
2022-08-26T09:34:06.247Z,9
2022-08-26T09:35:07.114Z,12.8
2022-08-26T09:36:06.896Z,15.1
2022-08-26T09:37:06.391Z,10.7
2022-08-26T09:38:06.736Z,13.4
2022-08-26T09:39:06.526Z,11.7
2022-08-26T09:40:06.320Z,13.2
2022-08-26T09:41:07.050Z,12.3
2022-08-26T09:42:06.785Z,9.8
2022-08-26T09:43:06.530Z,12
2022-08-26T09:44:06.252Z,15.9
2022-08-26T09:45:06.889Z,14.2
2022-08-26T09:46:06.721Z,12.6
2022-08-26T09:47:06.514Z,12.6
2022-08-26T09:48:06.415Z,12.2
2022-08-26T09:49:06.707Z,13.3
2022-08-26T09:50:06.794Z,12.6
2022-08-26T09:51:06.862Z,11.9
2022-08-26T09:52:06.674Z,11.2
2022-08-26T09:53:06.529Z,11.5
2022-08-26T09:54:06.350Z,8.4
2022-08-26T09:55:07.019Z,12.5
2022-08-26T09:56:06.781Z,8.8
2022-08-26T09:57:06.701Z,9.6
2022-08-26T09:58:06.841Z,11.7
2022-08-26T09:59:06.466Z,10.7
2022-08-26T10:00:07.244Z,11.8
2022-08-26T10:01:06.862Z,10.3
2022-08-26T10:02:06.746Z,10.3
2022-08-26T10:03:06.436Z,10.6
2022-08-26T10:04:06.898Z,12.6
2022-08-26T10:05:06.665Z,12
2022-08-26T10:06:06.750Z,10.8
2022-08-26T10:07:06.545Z,11.2
2022-08-26T10:08:06.300Z,10.3
2022-08-26T10:09:06.285Z,10.5
2022-08-26T10:10:06.904Z,10
2022-08-26T10:11:06.735Z,9.9
2022-08-26T10:12:07.019Z,9.7
2022-08-26T10:13:06.974Z,12.2
2022-08-26T10:14:07.025Z,10.6
2022-08-26T10:15:06.858Z,9.4
2022-08-26T10:16:06.991Z,9.8
2022-08-26T10:17:06.331Z,9
2022-08-26T10:18:06.661Z,10.7
2022-08-26T10:19:06.834Z,10.8
2022-08-26T10:20:06.849Z,9.3
2022-08-26T10:21:06.996Z,10
2022-08-26T10:22:07.115Z,10.2
2022-08-26T10:23:06.292Z,9.9
2022-08-26T10:24:06.848Z,9.6
2022-08-26T10:25:06.834Z,10.3
2022-08-26T10:26:06.953Z,11
2022-08-26T10:27:06.817Z,10.5
2022-08-26T10:28:06.591Z,8.3
2022-08-26T10:29:06.948Z,8.6
2022-08-26T10:30:06.869Z,9.2
2022-08-26T10:31:06.540Z,9
2022-08-26T10:32:06.385Z,9.2
2022-08-26T10:33:07.031Z,8.4
2022-08-26T10:34:06.522Z,7
2022-08-26T10:35:06.258Z,7.6
2022-08-26T10:36:07.096Z,6.5
2022-08-26T10:37:06.438Z,7.1
2022-08-26T10:38:06.904Z,11.5
2022-08-26T10:39:06.663Z,11.6
2022-08-26T10:40:07.013Z,10.6
2022-08-26T10:41:06.863Z,12.1
2022-08-26T10:42:06.484Z,9.4
2022-08-26T10:43:06.855Z,11.1
2022-08-26T10:44:07.127Z,11
2022-08-26T10:45:06.343Z,9
2022-08-26T10:46:06.922Z,10.8
2022-08-26T10:47:07.143Z,9.1
2022-08-26T10:48:06.414Z,17.7
2022-08-26T10:49:06.964Z,10.6
2022-08-26T10:50:06.657Z,9.2
2022-08-26T10:51:06.674Z,10
2022-08-26T10:52:06.918Z,8.8
2022-08-26T10:53:07.170Z,8.5
2022-08-26T10:54:06.513Z,10.8
2022-08-26T10:55:06.655Z,8.6
2022-08-26T10:56:06.369Z,8.3
2022-08-26T10:57:07.089Z,8.4
2022-08-26T10:58:06.666Z,8.5
2022-08-26T10:59:06.364Z,10.5
2022-08-26T11:00:07.004Z,8.3
2022-08-26T11:01:06.637Z,8.5
2022-08-26T11:02:06.355Z,7.1
2022-08-26T11:03:07.056Z,6.6
2022-08-26T11:04:06.377Z,6.6
2022-08-26T11:05:06.678Z,8.9
2022-08-26T11:06:06.475Z,8.6
2022-08-26T11:07:06.288Z,7.2
2022-08-26T11:08:06.754Z,6.7
2022-08-26T11:09:06.567Z,6.6
2022-08-26T11:10:06.912Z,7
2022-08-26T11:11:07.050Z,5
2022-08-26T11:12:06.701Z,5.2
2022-08-26T11:13:06.837Z,4.6
2022-08-26T11:14:07.069Z,6.2
2022-08-26T11:15:06.665Z,6.5
2022-08-26T11:16:06.942Z,4.8
2022-08-26T11:17:06.540Z,5.6
2022-08-26T11:18:06.844Z,5.3
2022-08-26T11:19:07.120Z,8
2022-08-26T11:20:06.380Z,5.6
2022-08-26T11:21:06.292Z,4.6
2022-08-26T11:22:07.179Z,4.1
2022-08-26T11:23:06.917Z,4.7
2022-08-26T11:24:07.069Z,4.2
2022-08-26T11:25:06.953Z,5.8
2022-08-26T11:26:06.362Z,6
2022-08-26T11:27:06.707Z,6.9
2022-08-26T11:28:06.768Z,5.1
2022-08-26T11:29:06.666Z,5.3
2022-08-26T11:30:06.980Z,5.8
2022-08-26T11:31:06.684Z,4.8
2022-08-26T11:32:06.917Z,5.6
2022-08-26T11:33:06.833Z,5.3
2022-08-26T11:34:06.378Z,4.9
2022-08-26T11:35:06.438Z,5.1
2022-08-26T11:36:06.236Z,5.1
2022-08-26T11:37:06.746Z,5
2022-08-26T11:38:06.919Z,6.5
2022-08-26T11:39:06.682Z,5.9
2022-08-26T11:40:06.787Z,4.5
2022-08-26T11:41:06.240Z,4.9
2022-08-26T11:42:06.900Z,4.7
2022-08-26T11:43:06.891Z,4.2
2022-08-26T11:44:06.936Z,4.5
2022-08-26T11:45:06.689Z,5
2022-08-26T11:46:06.973Z,3.8
2022-08-26T11:47:06.772Z,4.5
2022-08-26T11:48:06.480Z,4.3
2022-08-26T11:49:06.308Z,4.5
2022-08-26T11:50:07.061Z,2.8
2022-08-26T11:51:06.746Z,3.4
2022-08-26T11:52:06.535Z,3.8
2022-08-26T11:53:06.214Z,3.2
2022-08-26T11:54:06.238Z,1.8
2022-08-26T11:55:07.126Z,0.6
2022-08-26T11:56:07.062Z,1.2
2022-08-26T11:57:06.906Z,0.9
2022-08-26T11:58:06.970Z,0.5
2022-08-26T12:00:06.822Z,1.1
2022-08-26T12:01:06.531Z,0.9
2022-08-26T12:02:06.373Z,1.4
2022-08-26T12:03:07.068Z,2.4
2022-08-26T12:04:06.565Z,1.7
2022-08-26T12:05:06.363Z,0.9
2022-08-26T12:06:06.583Z,0.9
2022-08-26T12:07:06.896Z,1.9
2022-08-26T12:08:06.606Z,1.1
2022-08-26T12:09:06.587Z,1.1
2022-08-26T12:10:06.391Z,1.6
2022-08-26T12:11:07.075Z,2.1
2022-08-26T12:12:06.744Z,2.2
2022-08-26T12:13:06.359Z,1.3
2022-08-26T12:14:07.189Z,0.9
2022-08-26T12:15:06.878Z,1.1
2022-08-26T12:16:06.588Z,0.7
2022-08-26T12:17:06.444Z,1.7
2022-08-26T12:18:07.146Z,1
2022-08-26T12:19:06.854Z,1.2
2022-08-26T12:20:06.533Z,1.5
2022-08-26T12:21:06.910Z,1.6
2022-08-26T12:22:06.368Z,0.6
2022-08-26T12:23:07.149Z,1.2
2022-08-26T12:24:07.215Z,0.9
2022-08-26T12:25:07.003Z,1.4
2022-08-26T12:26:06.565Z,0.8
2022-08-26T12:27:07.197Z,1.4
2022-08-26T12:28:07.073Z,1.4
2022-08-26T12:29:06.420Z,1.1
2022-08-26T12:30:06.315Z,0.9
2022-08-26T12:31:07.120Z,2.1
2022-08-26T12:32:06.512Z,1.3
2022-08-26T12:33:06.268Z,2.8
2022-08-26T12:34:07.098Z,1.6
2022-08-26T12:35:06.829Z,1.1
2022-08-26T12:36:06.620Z,0.9
2022-08-26T12:37:06.486Z,1.1
2022-08-26T12:38:06.570Z,1.4
2022-08-26T12:39:06.801Z,0.7
2022-08-26T12:40:06.475Z,1.5
2022-08-26T12:41:07.078Z,2.1
2022-08-26T12:42:07.008Z,1.5
2022-08-26T12:43:07.208Z,0.8
2022-08-26T12:44:06.594Z,0.9
2022-08-26T12:45:06.617Z,1.9
2022-08-26T12:46:06.540Z,1.2
2022-08-26T12:47:06.253Z,0.9
2022-08-26T12:48:06.906Z,1.2
2022-08-26T12:49:07.226Z,1.1
2022-08-26T12:50:06.920Z,2.1
2022-08-26T12:51:06.738Z,1.5
2022-08-26T12:52:06.528Z,2.5
2022-08-26T12:53:06.676Z,1
2022-08-26T12:54:06.423Z,0.7
2022-08-26T12:55:07.146Z,1.1
2022-08-26T12:56:06.866Z,0.6
2022-08-26T12:57:06.361Z,1.3
2022-08-26T12:58:06.956Z,0.6
2022-08-26T12:59:06.608Z,2.3
2022-08-26T13:00:06.425Z,1.4
2022-08-26T13:01:06.978Z,1.2
2022-08-26T13:02:06.794Z,2.5
2022-08-26T13:03:06.580Z,1.5
2022-08-26T13:04:06.298Z,1.3
2022-08-26T13:05:06.998Z,2
2022-08-26T13:06:06.661Z,0.6
2022-08-26T13:07:06.519Z,1.7
2022-08-26T13:08:06.325Z,1.4
2022-08-26T13:09:07.112Z,1.3
2022-08-26T13:10:07.135Z,0.8
2022-08-26T13:11:06.895Z,1.2
2022-08-26T13:12:06.654Z,3.2
2022-08-26T13:13:06.616Z,2.5
2022-08-26T13:14:06.276Z,1.4
2022-08-26T13:15:07.088Z,0.5
2022-08-26T13:16:06.807Z,0.8
2022-08-26T13:17:06.638Z,1.6
2022-08-26T13:18:06.447Z,1
2022-08-26T13:19:07.114Z,0.9
2022-08-26T13:20:07.022Z,1.4
2022-08-26T13:21:06.735Z,2.6
2022-08-26T13:22:07.278Z,1.9
2022-08-26T13:23:06.881Z,1.3
2022-08-26T13:24:06.608Z,1.1
2022-08-26T13:25:06.726Z,2.2
2022-08-26T13:26:07.193Z,1.6
2022-08-26T13:27:06.923Z,1.7
2022-08-26T13:28:06.672Z,1
2022-08-26T13:29:06.511Z,0.8
2022-08-26T13:30:06.280Z,1.9
2022-08-26T13:31:07.126Z,4.7
2022-08-26T13:32:07.024Z,1.3
2022-08-26T13:33:06.777Z,1.5
2022-08-26T13:34:06.541Z,1.3
2022-08-26T13:35:06.255Z,1.9
2022-08-26T13:36:06.935Z,2.1
2022-08-26T13:37:06.815Z,1.3
2022-08-26T13:38:06.808Z,1.8
2022-08-26T13:39:06.574Z,0.7
2022-08-26T13:40:06.288Z,2.2
2022-08-26T13:41:07.097Z,1.1
2022-08-26T13:42:06.852Z,1.2
2022-08-26T13:43:06.867Z,3.9
2022-08-26T13:44:06.510Z,2.7
2022-08-26T13:45:06.275Z,2.6
2022-08-26T13:46:07.018Z,2.4
2022-08-26T13:47:06.716Z,1.4